Time;durP1;ratioP1;P1;durP2;ratioP2;P2;SDS_P1;SDS_P2;PMS_P1;PMS_P2;Temp;Humidity;BMP_temperature;BMP_pressure;BME280_temperature;BME280_humidity;BME280_pressure;Samples;Min_cycle;Max_cycle;Signal;HPM_P1;HPM_P2
2022/07/09 00:00:23;;;;;;;19.48;10.63;;;;;;;;;;3366098;42;20088;-57
2022/07/09 00:02:49;;;;;;;19.70;11.18;;;;;;;;;;3365799;42;20482;-56
2022/07/09 00:05:15;;;;;;;17.75;10.88;;;;;;;;;;3365932;42;20110;-60
2022/07/09 00:07:41;;;;;;;18.20;11.07;;;;;;;;;;3357091;42;20088;-57
2022/07/09 00:10:07;;;;;;;20.77;11.20;;;;;;;;;;3366151;42;20099;-60
2022/07/09 00:12:33;;;;;;;21.30;11.27;;;;;;;;;;3366737;42;20111;-66
2022/07/09 00:14:59;;;;;;;20.42;10.93;;;;;;;;;;3367560;42;20095;-57
2022/07/09 00:17:29;;;;;;;22.00;11.17;;;;;;;;;;3367592;42;20100;-57
2022/07/09 00:19:56;;;;;;;19.13;10.95;;;;;;;;;;3367371;42;20152;-55
2022/07/09 00:22:22;;;;;;;18.45;11.27;;;;;;;;;;3367617;42;20091;-56
2022/07/09 00:24:48;;;;;;;19.13;10.38;;;;;;;;;;3352826;42;20123;-54
2022/07/09 00:27:14;;;;;;;21.27;11.17;;;;;;;;;;3367435;42;20088;-59
2022/07/09 00:29:40;;;;;;;17.02;10.32;;;;;;;;;;3367277;42;20092;-59
2022/07/09 00:32:07;;;;;;;17.30;11.10;;;;;;;;;;3367501;42;20096;-57
2022/07/09 00:34:33;;;;;;;17.40;10.48;;;;;;;;;;3367482;42;20159;-57
2022/07/09 00:36:59;;;;;;;19.40;10.60;;;;;;;;;;3367245;42;20100;-57
2022/07/09 00:39:26;;;;;;;17.97;10.93;;;;;;;;;;3367517;42;20091;-56
2022/07/09 00:42:05;;;;;;;16.35;10.13;;;;;;;;;;3358429;42;20139;-57
2022/07/09 00:44:31;;;;;;;18.75;10.55;;;;;;;;;;3367265;42;20096;-54
2022/07/09 00:46:57;;;;;;;19.23;10.27;;;;;;;;;;3367474;42;20144;-57
2022/07/09 00:49:24;;;;;;;18.70;10.70;;;;;;;;;;3358620;42;20103;-58
2022/07/09 00:51:50;;;;;;;21.83;10.60;;;;;;;;;;3364064;42;20114;-57
2022/07/09 00:54:16;;;;;;;19.40;10.38;;;;;;;;;;3355237;42;20088;-58
2022/07/09 00:56:42;;;;;;;19.95;10.05;;;;;;;;;;3366759;42;20095;-57
2022/07/09 00:59:12;;;;;;;18.98;10.35;;;;;;;;;;3346776;42;20617;-54
2022/07/09 01:01:39;;;;;;;17.80;10.37;;;;;;;;;;3367295;42;20096;-56
2022/07/09 01:04:05;;;;;;;22.00;10.68;;;;;;;;;;3367384;42;20084;-57
2022/07/09 01:06:31;;;;;;;17.63;10.82;;;;;;;;;;3358437;42;20114;-56
2022/07/09 01:08:57;;;;;;;16.23;9.77;;;;;;;;;;3367686;42;20497;-58
2022/07/09 01:11:23;;;;;;;18.13;10.17;;;;;;;;;;3367867;42;20562;-56
2022/07/09 01:13:50;;;;;;;17.20;10.13;;;;;;;;;;3368090;42;20148;-54
2022/07/09 01:16:16;;;;;;;19.00;10.48;;;;;;;;;;3351736;42;20185;-56
2022/07/09 01:18:46;;;;;;;16.95;10.07;;;;;;;;;;3367927;42;20548;-58
2022/07/09 01:21:13;;;;;;;15.73;9.65;;;;;;;;;;3368069;42;20111;-56
2022/07/09 01:23:39;;;;;;;17.60;9.80;;;;;;;;;;3367556;42;20114;-59
2022/07/09 01:26:05;;;;;;;18.48;9.95;;;;;;;;;;3368124;42;20096;-57
2022/07/09 01:28:31;;;;;;;15.90;9.80;;;;;;;;;;3354691;42;20091;-59
2022/07/09 01:30:57;;;;;;;15.45;10.10;;;;;;;;;;3367913;42;20079;-57
2022/07/09 01:33:23;;;;;;;16.77;9.53;;;;;;;;;;3359141;42;20119;-54
2022/07/09 01:35:48;;;;;;;16.30;9.65;;;;;;;;;;3357071;42;20092;-56
2022/07/09 01:38:14;;;;;;;16.13;9.57;;;;;;;;;;3364825;42;20147;-58
2022/07/09 01:40:40;;;;;;;17.73;9.43;;;;;;;;;;3367192;42;20127;-56
2022/07/09 01:43:06;;;;;;;15.45;9.43;;;;;;;;;;3367019;42;20092;-55
2022/07/09 01:45:32;;;;;;;19.45;10.00;;;;;;;;;;3367433;42;20079;-56
2022/07/09 01:47:58;;;;;;;13.55;9.13;;;;;;;;;;3364304;42;20091;-55
2022/07/09 01:50:24;;;;;;;14.70;8.27;;;;;;;;;;3367065;42;20080;-56
2022/07/09 01:52:50;;;;;;;14.45;9.13;;;;;;;;;;3358446;42;20509;-56
2022/07/09 01:55:16;;;;;;;15.60;9.45;;;;;;;;;;3366828;42;20541;-54
2022/07/09 01:57:42;;;;;;;17.50;9.48;;;;;;;;;;3366648;42;20582;-56
2022/07/09 02:00:08;;;;;;;16.77;9.52;;;;;;;;;;3358030;42;20135;-58
2022/07/09 02:02:34;;;;;;;15.30;8.87;;;;;;;;;;3369562;42;20192;-55
2022/07/09 02:05:00;;;;;;;16.05;8.82;;;;;;;;;;3369797;42;20091;-57
2022/07/09 02:07:26;;;;;;;15.80;8.85;;;;;;;;;;3369908;42;20154;-56
2022/07/09 02:09:53;;;;;;;14.32;8.95;;;;;;;;;;3369431;42;20142;-53
2022/07/09 02:12:19;;;;;;;16.40;9.07;;;;;;;;;;3369347;42;20084;-57
2022/07/09 02:14:45;;;;;;;13.20;8.80;;;;;;;;;;3369417;42;20335;-56
2022/07/09 02:17:11;;;;;;;12.73;8.20;;;;;;;;;;3369259;42;20197;-56
2022/07/09 02:19:37;;;;;;;12.93;7.63;;;;;;;;;;3368459;42;20092;-56
2022/07/09 02:22:03;;;;;;;11.50;7.03;;;;;;;;;;3367929;42;20239;-56
2022/07/09 02:24:29;;;;;;;13.70;7.30;;;;;;;;;;3367453;42;20110;-56
2022/07/09 02:26:55;;;;;;;12.48;7.25;;;;;;;;;;3367306;42;20168;-58
2022/07/09 02:29:21;;;;;;;11.93;7.45;;;;;;;;;;3368014;42;20083;-52
2022/07/09 02:31:47;;;;;;;15.55;7.70;;;;;;;;;;3367347;42;20558;-56
2022/07/09 02:34:13;;;;;;;13.17;8.50;;;;;;;;;;3368568;42;20625;-55
2022/07/09 02:36:39;;;;;;;10.32;7.00;;;;;;;;;;3367217;42;20100;-57
2022/07/09 02:39:05;;;;;;;13.85;8.70;;;;;;;;;;3366359;42;20125;-55
2022/07/09 02:41:30;;;;;;;13.73;8.05;;;;;;;;;;3366122;42;20095;-55
2022/07/09 02:43:56;;;;;;;11.87;7.10;;;;;;;;;;3366336;42;20094;-56
2022/07/09 02:46:22;;;;;;;14.45;7.85;;;;;;;;;;3359949;42;20122;-54
2022/07/09 02:48:48;;;;;;;13.15;7.28;;;;;;;;;;3364442;42;20162;-55
2022/07/09 02:51:14;;;;;;;11.20;6.57;;;;;;;;;;3366397;42;20162;-55
2022/07/09 02:53:40;;;;;;;11.68;6.60;;;;;;;;;;3366334;42;20161;-54
2022/07/09 02:56:06;;;;;;;9.25;5.47;;;;;;;;;;3365895;42;20574;-55
2022/07/09 02:58:32;;;;;;;11.20;5.88;;;;;;;;;;3366191;42;20095;-55
2022/07/09 03:00:59;;;;;;;11.30;5.40;;;;;;;;;;3366237;42;20097;-54
2022/07/09 03:03:26;;;;;;;11.70;5.75;;;;;;;;;;3366367;42;20104;-55
2022/07/09 03:05:52;;;;;;;8.60;5.20;;;;;;;;;;3366597;42;20203;-58
2022/07/09 03:08:21;;;;;;;9.18;5.47;;;;;;;;;;3366705;42;20104;-55
2022/07/09 03:10:49;;;;;;;9.80;5.22;;;;;;;;;;3362899;42;20131;-55
2022/07/09 03:13:15;;;;;;;9.27;5.17;;;;;;;;;;3366209;42;20083;-55
2022/07/09 03:15:41;;;;;;;10.75;5.82;;;;;;;;;;3357429;42;20103;-54
2022/07/09 03:18:08;;;;;;;8.15;4.95;;;;;;;;;;3366019;42;20166;-58
2022/07/09 03:20:35;;;;;;;8.57;5.25;;;;;;;;;;3365843;42;20227;-52
2022/07/09 03:23:02;;;;;;;10.27;5.20;;;;;;;;;;3366041;42;20307;-54
2022/07/09 03:25:28;;;;;;;8.93;4.97;;;;;;;;;;3365980;42;20545;-57
2022/07/09 03:27:54;;;;;;;9.48;5.20;;;;;;;;;;3365601;42;20590;-55
2022/07/09 03:30:20;;;;;;;9.27;5.35;;;;;;;;;;3366149;42;20158;-55
2022/07/09 03:32:46;;;;;;;9.70;5.28;;;;;;;;;;3366368;42;20560;-58
2022/07/09 03:35:12;;;;;;;9.83;5.07;;;;;;;;;;3351266;42;20123;-57
2022/07/09 03:37:38;;;;;;;9.57;5.35;;;;;;;;;;3365878;42;20106;-56
2022/07/09 03:40:05;;;;;;;8.50;5.20;;;;;;;;;;3366023;42;20095;-56
2022/07/09 03:42:30;;;;;;;10.20;5.60;;;;;;;;;;3365864;42;20566;-54
2022/07/09 03:44:56;;;;;;;10.00;5.20;;;;;;;;;;3366128;42;20095;-52
2022/07/09 03:47:23;;;;;;;8.18;5.10;;;;;;;;;;3366564;42;20092;-54
2022/07/09 03:49:49;;;;;;;10.23;4.75;;;;;;;;;;3367834;42;20135;-54
2022/07/09 03:52:15;;;;;;;6.97;3.93;;;;;;;;;;3367653;42;20151;-55
2022/07/09 03:54:41;;;;;;;8.45;3.70;;;;;;;;;;3367842;42;20088;-54
2022/07/09 03:57:07;;;;;;;7.65;3.88;;;;;;;;;;3367768;42;20092;-56
2022/07/09 03:59:33;;;;;;;10.88;3.50;;;;;;;;;;3367767;42;20150;-58
2022/07/09 04:01:59;;;;;;;7.07;3.40;;;;;;;;;;3367598;42;20084;-56
2022/07/09 04:04:25;;;;;;;7.10;3.60;;;;;;;;;;3367780;42;20484;-57
2022/07/09 04:06:51;;;;;;;8.65;3.63;;;;;;;;;;3367801;42;20213;-58
2022/07/09 04:09:17;;;;;;;6.93;3.53;;;;;;;;;;3367681;42;20084;-54
2022/07/09 04:11:42;;;;;;;8.05;3.97;;;;;;;;;;3367767;42;20080;-54
2022/07/09 04:14:08;;;;;;;6.93;3.50;;;;;;;;;;3367590;42;20133;-58
2022/07/09 04:16:34;;;;;;;7.45;3.53;;;;;;;;;;3367725;42;20131;-55
2022/07/09 04:19:00;;;;;;;7.57;3.70;;;;;;;;;;3358659;42;20501;-55
2022/07/09 04:21:26;;;;;;;6.80;3.92;;;;;;;;;;3367638;42;20104;-56
2022/07/09 04:23:52;;;;;;;7.88;3.75;;;;;;;;;;3367164;42;20138;-55
2022/07/09 04:26:18;;;;;;;6.10;3.42;;;;;;;;;;3367302;42;20106;-56
2022/07/09 04:28:48;;;;;;;6.47;3.40;;;;;;;;;;3367823;42;20088;-56
2022/07/09 04:31:15;;;;;;;7.53;3.60;;;;;;;;;;3367322;42;20088;-54
2022/07/09 04:33:44;;;;;;;7.68;3.63;;;;;;;;;;3367412;42;20173;-57
2022/07/09 04:36:10;;;;;;;8.27;3.70;;;;;;;;;;3366911;42;20092;-58
2022/07/09 04:38:36;;;;;;;7.00;3.40;;;;;;;;;;3367695;42;20096;-57
2022/07/09 04:41:03;;;;;;;7.43;3.60;;;;;;;;;;3367323;42;20178;-57
2022/07/09 04:43:29;;;;;;;6.80;3.60;;;;;;;;;;3367532;42;20091;-56
2022/07/09 04:45:55;;;;;;;7.32;3.45;;;;;;;;;;3367517;42;20100;-55
2022/07/09 04:48:21;;;;;;;7.20;3.70;;;;;;;;;;3355421;42;20155;-58
2022/07/09 04:50:47;;;;;;;6.53;3.45;;;;;;;;;;3355326;42;20346;-56
2022/07/09 04:53:13;;;;;;;8.18;3.42;;;;;;;;;;3367093;42;20147;-54
2022/07/09 04:55:39;;;;;;;6.78;3.40;;;;;;;;;;3367270;42;20191;-56
2022/07/09 04:58:05;;;;;;;6.70;3.83;;;;;;;;;;3366829;42;20567;-57
2022/07/09 05:00:33;;;;;;;7.30;3.45;;;;;;;;;;3366837;42;20143;-57
2022/07/09 05:02:59;;;;;;;9.27;3.58;;;;;;;;;;3367069;42;20118;-56
2022/07/09 05:05:25;;;;;;;9.57;3.63;;;;;;;;;;3367228;42;20110;-57
2022/07/09 05:07:52;;;;;;;8.40;4.05;;;;;;;;;;3366833;42;20131;-56
2022/07/09 05:10:19;;;;;;;6.85;3.42;;;;;;;;;;3368552;42;20121;-57
2022/07/09 05:12:45;;;;;;;7.22;3.42;;;;;;;;;;3363094;42;20096;-58
2022/07/09 05:15:12;;;;;;;8.20;3.35;;;;;;;;;;3360611;42;20135;-56
2022/07/09 05:17:38;;;;;;;7.63;3.65;;;;;;;;;;3368651;42;20110;-56
2022/07/09 05:20:05;;;;;;;6.97;3.35;;;;;;;;;;3368546;42;20546;-57
2022/07/09 05:22:32;;;;;;;7.75;3.83;;;;;;;;;;3366671;42;20118;-55
2022/07/09 05:24:58;;;;;;;7.03;3.92;;;;;;;;;;3367107;42;20636;-56
2022/07/09 05:27:25;;;;;;;6.80;3.58;;;;;;;;;;3367027;42;20111;-57
2022/07/09 05:29:51;;;;;;;9.18;3.80;;;;;;;;;;3364749;42;20199;-57
2022/07/09 05:32:17;;;;;;;8.93;3.25;;;;;;;;;;3366908;42;20079;-58
2022/07/09 05:34:43;;;;;;;6.30;3.30;;;;;;;;;;3366616;42;20098;-56
2022/07/09 05:37:09;;;;;;;7.22;3.40;;;;;;;;;;3366890;42;20567;-57
2022/07/09 05:39:35;;;;;;;10.27;3.50;;;;;;;;;;3366923;42;20083;-54
2022/07/09 05:42:01;;;;;;;7.77;3.60;;;;;;;;;;3367415;42;20844;-55
2022/07/09 05:44:26;;;;;;;8.57;3.97;;;;;;;;;;3366503;42;20805;-55
2022/07/09 05:46:52;;;;;;;8.15;3.65;;;;;;;;;;3366811;42;20094;-57
2022/07/09 05:49:19;;;;;;;8.60;3.50;;;;;;;;;;3366592;42;20163;-55
2022/07/09 05:51:45;;;;;;;9.13;3.60;;;;;;;;;;3366638;42;20118;-56
2022/07/09 05:54:11;;;;;;;10.02;3.70;;;;;;;;;;3366759;42;20099;-56
2022/07/09 05:56:37;;;;;;;11.88;4.20;;;;;;;;;;3366365;42;20100;-57
2022/07/09 05:59:03;;;;;;;7.47;3.75;;;;;;;;;;3366407;42;20663;-56
2022/07/09 06:01:29;;;;;;;6.77;3.60;;;;;;;;;;3366613;42;20099;-56
2022/07/09 06:03:55;;;;;;;8.05;3.70;;;;;;;;;;3366629;42;20543;-55
2022/07/09 06:06:22;;;;;;;7.47;3.83;;;;;;;;;;3366477;42;20547;-52
2022/07/09 06:08:48;;;;;;;8.43;3.67;;;;;;;;;;3366825;42;21046;-57
2022/07/09 06:11:14;;;;;;;7.70;3.90;;;;;;;;;;3366137;42;20083;-54
2022/07/09 06:13:40;;;;;;;8.20;3.78;;;;;;;;;;3366201;42;20270;-54
2022/07/09 06:16:06;;;;;;;6.82;3.58;;;;;;;;;;3365703;42;20574;-57
2022/07/09 06:18:32;;;;;;;7.10;3.67;;;;;;;;;;3357583;42;20626;-57
2022/07/09 06:20:58;;;;;;;9.73;4.10;;;;;;;;;;3365945;42;20084;-55
2022/07/09 06:23:25;;;;;;;8.70;3.70;;;;;;;;;;3365629;42;20107;-56
2022/07/09 06:25:51;;;;;;;7.85;3.70;;;;;;;;;;3366128;42;20092;-59
2022/07/09 06:28:17;;;;;;;10.48;4.32;;;;;;;;;;3357489;42;20583;-55
2022/07/09 06:30:43;;;;;;;8.30;3.90;;;;;;;;;;3366687;42;20079;-58
2022/07/09 06:33:09;;;;;;;6.90;3.50;;;;;;;;;;3366151;42;20139;-57
2022/07/09 06:35:35;;;;;;;6.78;3.50;;;;;;;;;;3366176;42;20193;-57
2022/07/09 06:38:01;;;;;;;7.38;3.67;;;;;;;;;;3366202;42;20169;-57
2022/07/09 06:40:27;;;;;;;7.20;3.72;;;;;;;;;;3366388;42;20095;-57
2022/07/09 06:42:53;;;;;;;7.05;3.50;;;;;;;;;;3366148;42;20095;-58
2022/07/09 06:45:19;;;;;;;6.50;3.40;;;;;;;;;;3366160;42;20099;-56
2022/07/09 06:47:45;;;;;;;8.43;3.90;;;;;;;;;;3366158;42;20092;-56
2022/07/09 06:50:11;;;;;;;7.75;3.88;;;;;;;;;;3366306;42;20092;-57
2022/07/09 06:52:37;;;;;;;7.72;4.03;;;;;;;;;;3366256;42;20100;-57
2022/07/09 06:55:04;;;;;;;7.75;4.05;;;;;;;;;;3366260;42;20100;-57
2022/07/09 06:57:30;;;;;;;9.18;3.70;;;;;;;;;;3366191;42;20818;-55
2022/07/09 06:59:56;;;;;;;7.43;3.22;;;;;;;;;;3365998;42;20123;-57
2022/07/09 07:02:22;;;;;;;9.38;3.78;;;;;;;;;;3366067;42;20113;-56
2022/07/09 07:04:48;;;;;;;7.05;3.53;;;;;;;;;;3366275;42;20638;-55
2022/07/09 07:07:14;;;;;;;8.50;3.67;;;;;;;;;;3366140;42;20095;-56
2022/07/09 07:09:40;;;;;;;6.88;3.60;;;;;;;;;;3366398;42;20134;-55
2022/07/09 07:12:06;;;;;;;7.55;3.70;;;;;;;;;;3366646;42;20211;-56
2022/07/09 07:14:32;;;;;;;8.30;4.07;;;;;;;;;;3365720;42;20505;-58
2022/07/09 07:16:58;;;;;;;7.70;3.80;;;;;;;;;;3366268;42;20644;-56
2022/07/09 07:19:25;;;;;;;7.75;3.78;;;;;;;;;;3357370;42;20553;-58
2022/07/09 07:21:51;;;;;;;6.88;3.70;;;;;;;;;;3366408;42;20552;-57
2022/07/09 07:24:17;;;;;;;7.22;3.65;;;;;;;;;;3367874;42;20640;-56
2022/07/09 07:26:43;;;;;;;7.83;4.17;;;;;;;;;;3367840;42;20099;-59
2022/07/09 07:29:09;;;;;;;6.95;3.58;;;;;;;;;;3367896;42;20302;-53
2022/07/09 07:31:35;;;;;;;7.70;3.92;;;;;;;;;;3367902;42;20297;-57
2022/07/09 07:34:01;;;;;;;7.40;3.70;;;;;;;;;;3367542;42;20707;-57
2022/07/09 07:36:27;;;;;;;8.17;3.73;;;;;;;;;;3367452;42;20106;-58
2022/07/09 07:38:53;;;;;;;9.23;3.97;;;;;;;;;;3368081;42;20577;-57
2022/07/09 07:41:20;;;;;;;7.45;3.60;;;;;;;;;;3368379;42;20265;-57
2022/07/09 07:43:47;;;;;;;7.70;3.72;;;;;;;;;;3368561;42;20103;-56
2022/07/09 07:46:13;;;;;;;8.23;3.95;;;;;;;;;;3367945;42;20656;-57
2022/07/09 07:48:41;;;;;;;9.93;4.07;;;;;;;;;;3371132;42;20154;-56
2022/07/09 07:51:08;;;;;;;9.13;3.78;;;;;;;;;;3368006;42;20174;-57
2022/07/09 07:53:34;;;;;;;8.52;3.65;;;;;;;;;;3367880;42;20170;-56
2022/07/09 07:56:00;;;;;;;7.57;3.80;;;;;;;;;;3358948;42;20095;-54
2022/07/09 07:58:26;;;;;;;7.70;3.90;;;;;;;;;;3367454;42;20084;-57
2022/07/09 08:00:53;;;;;;;8.20;3.90;;;;;;;;;;3353148;42;20076;-57
2022/07/09 08:03:19;;;;;;;7.70;4.10;;;;;;;;;;3366839;42;20571;-57
2022/07/09 08:05:45;;;;;;;8.55;4.00;;;;;;;;;;3367468;42;20094;-55
2022/07/09 08:08:11;;;;;;;6.97;3.85;;;;;;;;;;3367446;42;20115;-58
2022/07/09 08:10:37;;;;;;;8.52;4.25;;;;;;;;;;3367528;42;20104;-57
2022/07/09 08:13:03;;;;;;;11.48;4.07;;;;;;;;;;3367266;42;20142;-57
2022/07/09 08:15:29;;;;;;;7.00;3.83;;;;;;;;;;3367320;42;20127;-58
2022/07/09 08:17:55;;;;;;;10.32;4.57;;;;;;;;;;3367247;42;20096;-57
2022/07/09 08:20:21;;;;;;;9.00;3.90;;;;;;;;;;3367342;42;20095;-58
2022/07/09 08:22:47;;;;;;;6.50;3.67;;;;;;;;;;3367243;42;20128;-58
2022/07/09 08:25:13;;;;;;;8.88;4.00;;;;;;;;;;3367384;42;20146;-57
2022/07/09 08:27:40;;;;;;;7.75;4.00;;;;;;;;;;3367630;42;20988;-61
2022/07/09 08:30:06;;;;;;;7.63;4.30;;;;;;;;;;3367540;42;20139;-57
2022/07/09 08:32:32;;;;;;;7.93;4.28;;;;;;;;;;3367378;42;20107;-59
2022/07/09 08:34:58;;;;;;;14.93;4.88;;;;;;;;;;3367845;42;20094;-55
2022/07/09 08:37:24;;;;;;;7.32;3.80;;;;;;;;;;3367206;42;20199;-57
2022/07/09 08:39:51;;;;;;;7.35;3.92;;;;;;;;;;3367367;42;20648;-57
2022/07/09 08:42:17;;;;;;;8.35;4.30;;;;;;;;;;3367227;42;20565;-59
2022/07/09 08:44:44;;;;;;;8.30;4.15;;;;;;;;;;3367445;42;20088;-58
2022/07/09 08:47:16;;;;;;;6.95;3.90;;;;;;;;;;3367189;42;20122;-59
2022/07/09 08:49:43;;;;;;;9.30;4.40;;;;;;;;;;3367500;42;20108;-59
2022/07/09 08:52:09;;;;;;;8.48;3.95;;;;;;;;;;3360218;42;20134;-61
2022/07/09 08:54:39;;;;;;;8.18;3.80;;;;;;;;;;3355088;42;20509;-60
2022/07/09 08:57:05;;;;;;;7.97;3.80;;;;;;;;;;3367230;42;20099;-60
2022/07/09 08:59:32;;;;;;;8.40;4.20;;;;;;;;;;3367028;42;20577;-60
2022/07/09 09:02:05;;;;;;;7.78;4.38;;;;;;;;;;3366415;42;20543;-59
2022/07/09 09:04:34;;;;;;;9.33;4.30;;;;;;;;;;3354829;42;20151;-59
2022/07/09 09:07:11;;;;;;;12.00;5.45;;;;;;;;;;3353798;42;20147;-59
2022/07/09 09:09:37;;;;;;;11.15;5.90;;;;;;;;;;3366978;42;20550;-57
2022/07/09 09:12:03;;;;;;;9.70;5.20;;;;;;;;;;3366611;42;20597;-61
2022/07/09 09:14:29;;;;;;;9.57;5.18;;;;;;;;;;3366554;42;20119;-60
2022/07/09 09:17:05;;;;;;;10.57;5.30;;;;;;;;;;3366490;42;20653;-57
2022/07/09 09:19:31;;;;;;;8.70;4.97;;;;;;;;;;3367177;42;20692;-59
2022/07/09 09:21:57;;;;;;;10.43;4.95;;;;;;;;;;3367060;42;20091;-57
2022/07/09 09:24:25;;;;;;;12.77;5.25;;;;;;;;;;3367884;42;20090;-60
2022/07/09 09:26:51;;;;;;;9.03;5.03;;;;;;;;;;3340560;42;20099;-61
2022/07/09 09:29:16;;;;;;;11.15;4.93;;;;;;;;;;3368650;42;20080;-61
2022/07/09 09:31:45;;;;;;;9.90;5.15;;;;;;;;;;3366800;42;20157;-57
2022/07/09 09:34:13;;;;;;;9.30;5.32;;;;;;;;;;3353505;42;20092;-57
2022/07/09 09:36:43;;;;;;;9.67;5.20;;;;;;;;;;3364807;42;20095;-57
2022/07/09 09:39:13;;;;;;;9.50;5.20;;;;;;;;;;3367995;42;20593;-58
2022/07/09 09:41:40;;;;;;;11.23;5.35;;;;;;;;;;3366606;42;20103;-60
2022/07/09 09:44:11;;;;;;;12.23;5.32;;;;;;;;;;3366702;42;20147;-58
2022/07/09 09:46:37;;;;;;;11.70;5.25;;;;;;;;;;3366200;42;20159;-58
2022/07/09 09:49:07;;;;;;;11.07;5.77;;;;;;;;;;3366892;42;20087;-58
2022/07/09 09:51:58;;;;;;;9.68;5.32;;;;;;;;;;3366327;42;20106;-61
2022/07/09 09:54:24;;;;;;;9.90;5.88;;;;;;;;;;3353194;42;20087;-60
2022/07/09 09:56:50;;;;;;;10.75;5.32;;;;;;;;;;3366098;42;20214;-57
2022/07/09 09:59:16;;;;;;;10.25;5.75;;;;;;;;;;3366876;42;20095;-56
2022/07/09 10:01:43;;;;;;;9.70;5.37;;;;;;;;;;3357892;42;20110;-60
2022/07/09 10:04:09;;;;;;;10.13;5.75;;;;;;;;;;3367711;42;20127;-57
2022/07/09 10:06:36;;;;;;;10.75;5.70;;;;;;;;;;3366391;42;20139;-58
2022/07/09 10:09:03;;;;;;;12.68;5.55;;;;;;;;;;3358234;42;20102;-57
2022/07/09 10:11:46;;;;;;;11.38;5.78;;;;;;;;;;3366501;42;20087;-57
2022/07/09 10:14:16;;;;;;;11.90;6.13;;;;;;;;;;3366695;42;20589;-54
2022/07/09 10:16:42;;;;;;;10.55;5.80;;;;;;;;;;3366387;42;20147;-56
2022/07/09 10:19:08;;;;;;;14.85;6.30;;;;;;;;;;3366815;42;20099;-56
2022/07/09 10:21:41;;;;;;;11.15;5.82;;;;;;;;;;3366647;42;20076;-58
2022/07/09 10:24:10;;;;;;;14.20;6.10;;;;;;;;;;3350929;42;20130;-54
2022/07/09 10:26:48;;;;;;;11.10;5.67;;;;;;;;;;3366276;42;20584;-54
2022/07/09 10:29:19;;;;;;;13.80;5.57;;;;;;;;;;3361352;42;20114;-59
2022/07/09 10:31:46;;;;;;;10.18;5.70;;;;;;;;;;3366716;42;20112;-53
2022/07/09 10:34:22;;;;;;;11.35;5.65;;;;;;;;;;3366874;42;20538;-57
2022/07/09 10:37:02;;;;;;;10.50;5.80;;;;;;;;;;3353424;42;20130;-57
2022/07/09 10:39:29;;;;;;;13.37;6.50;;;;;;;;;;3357770;42;20560;-60
2022/07/09 10:42:16;;;;;;;11.43;6.22;;;;;;;;;;3366615;42;20139;-59
2022/07/09 10:44:42;;;;;;;12.00;5.95;;;;;;;;;;3366550;42;20094;-58
2022/07/09 10:47:08;;;;;;;11.18;6.40;;;;;;;;;;3366489;42;20566;-57
2022/07/09 10:49:35;;;;;;;11.57;6.43;;;;;;;;;;3366442;42;20135;-57
2022/07/09 10:52:01;;;;;;;14.87;7.50;;;;;;;;;;3366723;42;20533;-57
2022/07/09 10:54:27;;;;;;;11.73;6.70;;;;;;;;;;3366326;42;20103;-56
2022/07/09 10:56:53;;;;;;;11.15;6.70;;;;;;;;;;3366189;42;20502;-58
2022/07/09 10:59:19;;;;;;;14.45;6.70;;;;;;;;;;3357524;42;20091;-56
2022/07/09 11:01:45;;;;;;;10.83;6.77;;;;;;;;;;3366245;42;20182;-56
2022/07/09 11:04:12;;;;;;;11.73;6.90;;;;;;;;;;3366538;42;20084;-58
2022/07/09 11:06:45;;;;;;;12.07;6.47;;;;;;;;;;3351345;42;20208;-55
2022/07/09 11:09:13;;;;;;;12.52;6.93;;;;;;;;;;3366283;42;20139;-59
2022/07/09 11:11:42;;;;;;;11.95;7.00;;;;;;;;;;3366019;42;20098;-57
2022/07/09 11:14:08;;;;;;;15.10;7.07;;;;;;;;;;3357457;42;20092;-58
2022/07/09 11:16:34;;;;;;;14.57;8.10;;;;;;;;;;3366061;42;20185;-59
2022/07/09 11:19:01;;;;;;;17.80;8.65;;;;;;;;;;3366088;42;20237;-55
2022/07/09 11:21:27;;;;;;;14.88;7.93;;;;;;;;;;3357347;42;20098;-56
2022/07/09 11:23:53;;;;;;;13.70;7.18;;;;;;;;;;3366177;42;20088;-54
2022/07/09 11:26:19;;;;;;;13.60;7.40;;;;;;;;;;3365781;42;20172;-58
2022/07/09 11:28:47;;;;;;;12.50;6.80;;;;;;;;;;3365994;42;20138;-56
2022/07/09 11:31:13;;;;;;;13.35;7.00;;;;;;;;;;3357425;42;20084;-57
2022/07/09 11:36:23;;;;;;;14.43;6.97;;;;;;;;;;3366055;42;20177;-55
2022/07/09 11:38:53;;;;;;;12.15;6.97;;;;;;;;;;3357182;42;20090;-58
2022/07/09 11:41:19;;;;;;;12.02;7.47;;;;;;;;;;3366323;42;20084;-56
2022/07/09 11:43:48;;;;;;;15.60;8.07;;;;;;;;;;3366316;42;20080;-59
2022/07/09 11:46:20;;;;;;;14.17;7.40;;;;;;;;;;3366017;42;20100;-59
2022/07/09 11:48:53;;;;;;;12.27;7.25;;;;;;;;;;3360224;42;20165;-54
2022/07/09 11:51:28;;;;;;;13.82;7.05;;;;;;;;;;3365612;42;20098;-55
2022/07/09 11:53:54;;;;;;;13.30;7.40;;;;;;;;;;3363333;42;20103;-54
2022/07/09 11:56:19;;;;;;;11.27;6.90;;;;;;;;;;3366242;42;20096;-52
2022/07/09 11:58:52;;;;;;;12.87;6.77;;;;;;;;;;3365952;42;20127;-58
2022/07/09 12:01:18;;;;;;;13.50;6.22;;;;;;;;;;3365970;42;20084;-57
2022/07/09 12:03:49;;;;;;;11.00;6.90;;;;;;;;;;3366433;42;20131;-59
2022/07/09 12:06:15;;;;;;;9.10;5.55;;;;;;;;;;3366057;42;20098;-57
2022/07/09 12:08:41;;;;;;;10.97;5.70;;;;;;;;;;3366915;42;20581;-56
2022/07/09 12:11:07;;;;;;;11.82;5.78;;;;;;;;;;3368167;42;20071;-55
2022/07/09 12:13:33;;;;;;;10.57;6.10;;;;;;;;;;3355332;42;20606;-59
2022/07/09 12:15:58;;;;;;;10.68;5.95;;;;;;;;;;3371176;42;20095;-58
2022/07/09 12:18:24;;;;;;;11.80;6.00;;;;;;;;;;3370802;42;20625;-57
2022/07/09 12:20:50;;;;;;;10.32;6.40;;;;;;;;;;3368803;42;20127;-56
2022/07/09 12:23:16;;;;;;;11.63;6.68;;;;;;;;;;3357287;42;20084;-56
2022/07/09 12:25:42;;;;;;;10.73;6.57;;;;;;;;;;3367837;42;20087;-57
2022/07/09 12:28:08;;;;;;;11.63;6.67;;;;;;;;;;3367663;42;20314;-56
2022/07/09 12:30:34;;;;;;;11.75;6.50;;;;;;;;;;3367870;42;20192;-58
2022/07/09 12:33:00;;;;;;;11.80;7.07;;;;;;;;;;3367910;42;20080;-56
2022/07/09 12:35:26;;;;;;;12.30;7.27;;;;;;;;;;3367824;42;20558;-57
2022/07/09 12:37:52;;;;;;;10.77;7.10;;;;;;;;;;3363489;42;20099;-58
2022/07/09 12:40:18;;;;;;;12.18;7.45;;;;;;;;;;3367418;42;20084;-58
2022/07/09 12:42:44;;;;;;;12.05;7.43;;;;;;;;;;3358480;42;20087;-56
2022/07/09 12:45:12;;;;;;;11.63;7.07;;;;;;;;;;3367319;42;20285;-55
2022/07/09 12:47:38;;;;;;;11.00;7.32;;;;;;;;;;3367012;42;20100;-55
2022/07/09 12:50:04;;;;;;;11.75;7.38;;;;;;;;;;3367380;42;20099;-52
2022/07/09 12:52:32;;;;;;;12.75;8.30;;;;;;;;;;3358294;42;20143;-57
2022/07/09 12:55:02;;;;;;;12.90;8.00;;;;;;;;;;3367562;42;20151;-60
2022/07/09 12:57:28;;;;;;;14.27;9.30;;;;;;;;;;3366924;42;20142;-54
2022/07/09 12:59:54;;;;;;;13.65;9.30;;;;;;;;;;3366625;42;20100;-58
2022/07/09 13:02:20;;;;;;;13.88;8.95;;;;;;;;;;3366943;42;20097;-56
2022/07/09 13:04:46;;;;;;;14.55;9.57;;;;;;;;;;3366878;42;20095;-60
2022/07/09 13:07:13;;;;;;;15.97;9.60;;;;;;;;;;3366915;42;20099;-52
2022/07/09 13:09:39;;;;;;;17.38;10.52;;;;;;;;;;3366206;42;20566;-54
2022/07/09 13:12:05;;;;;;;21.05;11.30;;;;;;;;;;3367109;42;20139;-56
2022/07/09 13:14:31;;;;;;;17.70;10.95;;;;;;;;;;3366573;42;20242;-57
2022/07/09 13:16:57;;;;;;;18.53;10.90;;;;;;;;;;3366831;42;20783;-56
2022/07/09 13:19:23;;;;;;;18.05;10.98;;;;;;;;;;3366822;42;20692;-59
2022/07/09 13:21:49;;;;;;;16.45;10.77;;;;;;;;;;3367080;42;20145;-59
2022/07/09 13:24:15;;;;;;;16.20;10.35;;;;;;;;;;3366124;42;20521;-56
2022/07/09 13:26:41;;;;;;;14.73;9.70;;;;;;;;;;3366844;42;20591;-56
2022/07/09 13:29:07;;;;;;;15.57;10.07;;;;;;;;;;3365982;42;20151;-58
2022/07/09 13:31:33;;;;;;;16.08;9.18;;;;;;;;;;3368786;42;20097;-53
2022/07/09 13:33:59;;;;;;;14.63;9.00;;;;;;;;;;3372028;42;20091;-56
2022/07/09 13:36:25;;;;;;;14.03;8.63;;;;;;;;;;3370020;42;20088;-56
2022/07/09 13:38:51;;;;;;;16.70;9.20;;;;;;;;;;3371665;42;20688;-56
2022/07/09 13:41:18;;;;;;;15.15;8.82;;;;;;;;;;3366777;42;20096;-57
2022/07/09 13:43:45;;;;;;;13.63;8.57;;;;;;;;;;3368813;42;20096;-56
2022/07/09 13:46:12;;;;;;;15.80;8.80;;;;;;;;;;3369662;42;20155;-54
2022/07/09 13:48:38;;;;;;;14.47;8.90;;;;;;;;;;3362163;42;20107;-56
2022/07/09 13:51:04;;;;;;;15.40;8.88;;;;;;;;;;3371022;42;20098;-56
2022/07/09 13:53:31;;;;;;;15.38;8.90;;;;;;;;;;3370370;42;20166;-60
2022/07/09 13:55:58;;;;;;;14.15;8.82;;;;;;;;;;3361351;42;20710;-56
2022/07/09 13:58:24;;;;;;;15.82;8.90;;;;;;;;;;3367842;42;20095;-56
2022/07/09 14:00:50;;;;;;;12.83;8.60;;;;;;;;;;3357643;42;20083;-58
2022/07/09 14:03:16;;;;;;;14.50;8.48;;;;;;;;;;3367246;42;20151;-58
2022/07/09 14:05:42;;;;;;;13.60;8.57;;;;;;;;;;3369695;42;20100;-55
2022/07/09 14:08:08;;;;;;;14.00;9.07;;;;;;;;;;3366486;42;20154;-55
2022/07/09 14:10:34;;;;;;;15.10;8.57;;;;;;;;;;3365627;42;20091;-57
2022/07/09 14:13:01;;;;;;;13.05;7.85;;;;;;;;;;3365249;42;20092;-55
2022/07/09 14:15:27;;;;;;;15.13;8.18;;;;;;;;;;3365798;42;20593;-57
2022/07/09 14:17:52;;;;;;;13.88;8.18;;;;;;;;;;3366169;42;20105;-56
2022/07/09 14:20:19;;;;;;;12.52;8.15;;;;;;;;;;3353420;42;20158;-56
2022/07/09 14:22:46;;;;;;;14.43;8.37;;;;;;;;;;3351844;42;20135;-55
2022/07/09 14:25:12;;;;;;;12.10;7.53;;;;;;;;;;3366558;42;20096;-56
2022/07/09 14:27:38;;;;;;;15.80;8.20;;;;;;;;;;3359788;42;20098;-60
2022/07/09 14:30:04;;;;;;;14.98;7.75;;;;;;;;;;3349957;42;20140;-55
2022/07/09 14:32:30;;;;;;;12.65;7.68;;;;;;;;;;3366055;42;20084;-59